Flight Track Log - Related Links

Times and Time Zones

All times are in EDT time to prevent confusion due to time zone crossing. See the AWE226 flight status page for this flight to view local times or setup timezone preferences in your user account.

Time Position Orientation Groundspeed Altitude Reporting Facility
EDT Latitude Longitude Course Direction KTS MPH feet Rate Location/Type
Tue 03:12:30 AM 33.4333 -112.0333 301° West 162 186 1,900  Level Phoenix TRACON
Tue 03:13:12 AM 33.4500 -112.0667 301° West 165 190 2,800 941 Climbing Phoenix TRACON
Tue 03:14:12 AM 33.4500 -112.1333 270° West 202 232 3,500 1,100 Climbing Phoenix TRACON
Tue 03:15:12 AM 33.4833 -112.1833 309° West 253 291 5,000 1,750 Climbing Phoenix TRACON
Tue 03:16:12 AM 33.5333 -112.1333 40° Northeast 277 319 7,000 1,952 Climbing Phoenix TRACON
Tue 03:17:18 AM 33.5917 -112.0769 39° Northeast 285 328 9,100 1,667 Climbing Albuquerque Center
Tue 03:18:18 AM 33.6531 -112.0050 44° Northeast 307 353 10,500 1,250 Climbing Albuquerque Center
Tue 03:19:18 AM 33.7244 -111.9203 45° Northeast 359 413 11,600 1,537 Climbing Albuquerque Center
Tue 03:20:19 AM 33.7992 -111.8303 45° Northeast 381 438 13,600 1,636 Climbing Albuquerque Center
Tue 03:21:19 AM 33.8744 -111.7400 45° Northeast 389 448 14,900 1,250 Climbing Albuquerque Center
Tue 03:22:19 AM 33.9719 -111.6253 44° Northeast 420 483 16,100 1,289 Climbing Albuquerque Center
Tue 03:23:20 AM 34.0553 -111.5228 46° Northeast 432 497 17,500 1,388 Climbing Albuquerque Center
Tue 03:24:20 AM 34.1408 -111.4183 45° Northeast 439 505 18,900 1,350 Climbing Albuquerque Center
Tue 03:25:20 AM 34.2283 -111.3128 45° Northeast 445 512 20,200 1,091 Climbing Albuquerque Center
Tue 03:26:21 AM 34.3169 -111.2044 45° Northeast 451 519 21,100 893 Climbing Albuquerque Center
Tue 03:27:21 AM 34.3964 -111.0803 52° Northeast 464 534 22,000 900 Climbing Albuquerque Center
Tue 03:28:21 AM 34.4750 -110.9508 54° Northeast 473 544 22,900 843 Climbing Albuquerque Center
Tue 03:29:22 AM 34.5531 -110.8200 54° Northeast 477 549 23,700 992 Climbing Albuquerque Center
Tue 03:30:22 AM 34.6317 -110.6881 54° Northeast 481 554 24,900 1,200 Climbing Albuquerque Center
Tue 03:31:22 AM 34.7186 -110.5417 54° Northeast 479 551 26,100 1,041 Climbing Albuquerque Center
Tue 03:32:23 AM 34.7936 -110.4161 54° Northeast 479 551 27,000 843 Climbing Albuquerque Center
Tue 03:33:23 AM 34.8683 -110.2894 54° Northeast 480 552 27,800 750 Climbing Albuquerque Center
Tue 03:34:23 AM 34.9442 -110.1600 54° Northeast 488 562 28,500 744 Climbing Albuquerque Center
Tue 03:35:24 AM 35.0342 -110.0081 54° Northeast 494 568 29,300 694 Climbing Albuquerque Center
Tue 03:36:24 AM 35.1103 -109.8758 55° Northeast 497 572 29,900 650 Climbing Albuquerque Center
Tue 03:37:24 AM 35.1886 -109.7436 54° Northeast 500 575 30,600 700 Climbing Albuquerque Center
Tue 03:38:24 AM 35.2800 -109.5889 54° Northeast 503 579 31,300 694 Climbing Albuquerque Center
Tue 03:39:25 AM 35.3567 -109.4539 55° Northeast 504 580 32,000 694 Climbing Albuquerque Center
Tue 03:40:25 AM 35.4333 -109.3181 55° Northeast 506 582 32,700 500 Climbing Albuquerque Center
Tue 03:41:25 AM 35.5117 -109.1842 54° Northeast 506 582 33,000 149 Climbing Albuquerque Center
Tue 03:42:26 AM 35.6033 -109.0225 55° Northeast 513 590 33,000  Level Albuquerque Center
Tue 03:43:26 AM 35.6833 -108.8817 55° Northeast 524 603 33,000  Level Albuquerque Center
Tue 03:44:26 AM 35.7631 -108.7408 55° Northeast 527 606 33,000  Level Albuquerque Center
Tue 03:45:27 AM 35.8558 -108.5772 55° Northeast 528 608 33,000  Level Albuquerque Center
Tue 03:46:27 AM 35.9353 -108.4369 55° Northeast 527 606 33,000  Level Albuquerque Center
Tue 03:48:00 AM 36.0376 -108.2275 57° Northeast  Level FlightAware Approximate
Tue 03:51:21 AM 36.3442 -107.6997 56° Northeast 527 606 33,000  Level Denver Center
Tue 03:52:21 AM 36.4133 -107.5469 61° Northeast 530 610 33,000  Level Denver Center
Tue 03:53:22 AM 36.4925 -107.3669 61° Northeast 532 612 33,000  Level Denver Center
Tue 03:54:22 AM 36.5586 -107.2131 62° Northeast 528 608 33,000  Level Denver Center
Tue 03:55:00 AM 36.5461 -107.3187 54° Northeast  Level FlightAware Approximate
Tue 03:55:23 AM 36.6250 -107.0578 62° Northeast 532 612 33,000  Level Denver Center
Tue 03:56:00 AM 36.6179 -107.1876 56° Northeast  Level FlightAware Approximate
Tue 03:56:23 AM 36.6919 -106.9028 62° Northeast 531 611 33,000  Level Denver Center
Tue 03:57:24 AM 36.7711 -106.7228 61° Northeast 530 610 33,000  Level Denver Center
Tue 03:58:24 AM 36.8367 -106.5672 62° Northeast 530 610 33,000  Level Denver Center
Tue 03:59:25 AM 36.9008 -106.4114 63° Northeast 529 609 33,000  Level Denver Center
Tue 04:00:25 AM 36.9789 -106.2294 62° Northeast 530 610 33,000  Level Denver Center
Tue 04:01:26 AM 37.0447 -106.0719 62° Northeast 533 613 33,000 149 Level Denver Center
Tue 04:02:26 AM 37.1094 -105.9167 62° Northeast 529 609 33,300 446 Climbing Denver Center
Tue 04:03:27 AM 37.1847 -105.7342 63° Northeast 529 609 33,900 595 Climbing Denver Center
Tue 04:04:27 AM 37.2481 -105.5781 63° Northeast 526 605 34,500 545 Climbing Denver Center
Tue 04:05:28 AM 37.3092 -105.4228 64° Northeast 518 596 35,000 248 Climbing Denver Center
Tue 04:06:28 AM 37.3825 -105.2417 63° Northeast 519 597 35,000  Level Denver Center
Tue 04:07:29 AM 37.4489 -105.0864 62° Northeast 526 605 35,000  Level Denver Center
Tue 04:08:29 AM 37.5108 -104.9286 64° Northeast 526 605 35,000  Level Denver Center
Tue 04:09:30 AM 37.5725 -104.7717 64° Northeast 523 602 35,000  Level Denver Center
Tue 04:10:30 AM 37.6464 -104.5872 63° Northeast 526 605 35,000  Level Denver Center
Tue 04:11:31 AM 37.7094 -104.4281 63° Northeast 526 605 35,000  Level Denver Center
Tue 04:12:31 AM 37.7733 -104.2686 63° Northeast 527 606 35,000  Level Denver Center
Tue 04:13:32 AM 37.8361 -104.1061 64° Northeast 531 611 35,000  Level Denver Center
Tue 04:14:32 AM 37.9100 -103.9181 63° Northeast 529 609 35,000  Level Denver Center
Tue 04:15:33 AM 37.9711 -103.7564 64° Northeast 529 609 35,000  Level Denver Center
Tue 04:16:33 AM 38.0339 -103.5942 64° Northeast 533 613 35,000  Level Denver Center
Tue 04:17:34 AM 38.1061 -103.4056 64° Northeast 532 612 35,000  Level Denver Center
Tue 04:18:34 AM 38.1672 -103.2444 64° Northeast 529 609 35,000  Level Denver Center
Tue 04:19:35 AM 38.2339 -103.0697 64° Northeast 531 611 35,000  Level Denver Center
Tue 04:20:35 AM 38.2956 -102.9067 64° Northeast 533 613 35,000  Level Denver Center
Tue 04:21:36 AM 38.3550 -102.7458 65° Northeast 527 606 35,000  Level Denver Center
Tue 04:22:36 AM 38.4272 -102.5542 64° Northeast 536 617 35,000  Level Denver Center
Tue 04:23:37 AM 38.4864 -102.3919 65° Northeast 529 609 35,000  Level Denver Center
Tue 04:24:49 AM 38.5569 -102.2017 65° Northeast 528 608 35,000  Level Denver Center
Tue 04:25:50 AM 38.6272 -102.0100 65° Northeast 531 611 35,000  Level Denver Center
Tue 04:26:50 AM 38.6869 -101.8447 65° Northeast 531 611 35,000  Level Denver Center
Tue 04:27:50 AM 38.7478 -101.6800 65° Northeast 534 615 35,000  Level Denver Center
Tue 04:28:51 AM 38.8169 -101.4867 65° Northeast 534 615 35,000  Level Denver Center
Tue 04:29:51 AM 38.8761 -101.3197 65° Northeast 536 617 35,000  Level Denver Center
Tue 04:30:52 AM 38.9358 -101.1525 65° Northeast 538 619 35,000  Level Denver Center
Tue 04:31:52 AM 38.9956 -100.9856 65° Northeast 538 619 35,000  Level Denver Center
Tue 04:32:53 AM 39.0567 -100.8103 66° East 536 617 35,000  Level Denver Center
Tue 04:33:53 AM 39.1256 -100.6125 66° East 542 624 35,000  Level Denver Center
Tue 04:34:54 AM 39.1833 -100.4431 66° East 541 623 35,000  Level Denver Center
Tue 04:35:54 AM 39.2425 -100.2742 66° East 543 625 35,000  Level Denver Center
Tue 04:36:55 AM 39.2978 -100.0719 70° East 538 619 35,000  Level Denver Center
Tue 04:37:55 AM 39.3422 -99.8936 72° East 544 626 35,000  Level Denver Center
Tue 04:38:55 AM 39.3867 -99.7194 72° East 539 620 35,000  Level Denver Center
Tue 04:39:56 AM 39.4225 -99.5717 73° East 541 623 35,000  Level Denver Center
Tue 04:40:56 AM 39.4825 -99.3325 72° East 540 621 35,000  Level Denver Center
Tue 04:41:57 AM 39.5281 -99.1469 72° East 541 623 35,000  Level Denver Center
Tue 04:42:57 AM 39.5731 -98.9611 73° East 542 624 35,000  Level Denver Center
Tue 04:43:58 AM 39.6167 -98.7775 73° East 538 619 35,000  Level Denver Center
Tue 04:44:58 AM 39.6611 -98.5922 73° East 538 619 35,000  Level Denver Center
Tue 04:46:03 AM 39.7047 -98.4100 73° East 538 619 35,000  Level Minneapolis Center
Tue 04:47:03 AM 39.7481 -98.2253 73° East 537 618 35,000  Level Minneapolis Center
Tue 04:48:04 AM 39.7908 -98.0417 73° East 535 616 35,000  Level Minneapolis Center
Tue 04:49:05 AM 39.8325 -97.8583 73° East 532 612 35,000  Level Minneapolis Center
Tue 04:50:05 AM 39.8833 -97.6375 73° East 533 613 35,000  Level Minneapolis Center
Tue 04:51:06 AM 39.9250 -97.4522 74° East 534 615 35,000  Level Minneapolis Center
Tue 04:52:06 AM 39.9647 -97.2747 74° East 531 611 35,000  Level Minneapolis Center
Tue 04:53:07 AM 40.0072 -97.0883 73° East 534 615 35,000  Level Minneapolis Center
Tue 04:54:07 AM 40.0483 -96.9025 74° East 535 616 35,000  Level Minneapolis Center
Tue 04:55:08 AM 40.0892 -96.7172 74° East 535 616 35,000  Level Minneapolis Center
Tue 04:56:09 AM 40.1294 -96.5314 74° East 534 615 35,000  Level Minneapolis Center
Tue 04:57:09 AM 40.1697 -96.3450 74° East 535 616 35,000  Level Minneapolis Center
Tue 04:58:10 AM 40.2100 -96.1583 74° East 536 617 35,000  Level Minneapolis Center
Tue 04:59:10 AM 40.2447 -95.9697 76° East 536 617 35,000  Level Minneapolis Center
Tue 05:00:11 AM 40.2786 -95.7792 77° East 540 621 35,000  Level Minneapolis Center
Tue 05:01:11 AM 40.3133 -95.5917 76° East 535 616 35,000  Level Minneapolis Center
Tue 05:02:12 AM 40.3483 -95.4036 76° East 534 615 35,000  Level Minneapolis Center
Tue 05:03:12 AM 40.3819 -95.2142 77° East 535 616 35,000  Level Minneapolis Center
Tue 05:04:13 AM 40.4161 -95.0258 77° East 534 615 35,000  Level Minneapolis Center
Tue 05:05:13 AM 40.4483 -94.8372 77° East 532 612 35,000  Level Minneapolis Center
Tue 05:06:14 AM 40.4814 -94.6486 77° East 532 612 35,000  Level Minneapolis Center
Tue 05:07:14 AM 40.5164 -94.4439 77° East 530 610 35,000  Level Minneapolis Center
Tue 05:08:15 AM 40.5469 -94.2561 78° East 530 610 35,000  Level Minneapolis Center
Tue 05:09:15 AM 40.5792 -94.0658 77° East 534 615 35,000  Level Minneapolis Center
Tue 05:10:16 AM 40.6156 -93.8778 76° East 534 615 35,000  Level Minneapolis Center
Tue 05:11:17 AM 40.6611 -93.6911 72° East 535 616 35,000  Level Minneapolis Center
Tue 05:12:17 AM 40.7025 -93.5081 73° East 529 609 35,000  Level Minneapolis Center
Tue 05:13:18 AM 40.7456 -93.3231 73° East 530 610 35,000  Level Minneapolis Center
Tue 05:14:18 AM 40.7869 -93.1386 73° East 528 608 35,000  Level Minneapolis Center
Tue 05:15:19 AM 40.8289 -92.9536 73° East 527 606 35,000  Level Minneapolis Center
Tue 05:16:19 AM 40.8706 -92.7675 73° East 529 609 35,000  Level Minneapolis Center
Tue 05:17:20 AM 40.9119 -92.5833 73° East 525 604 35,000  Level Minneapolis Center
Tue 05:18:21 AM 40.9608 -92.3614 74° East 525 604 35,000  Level Minneapolis Center
Tue 05:19:22 AM 41.0008 -92.1733 74° East 529 609 35,000  Level Minneapolis Center
Tue 05:20:22 AM 41.0406 -91.9864 74° East 530 610 35,000  Level Minneapolis Center
Tue 05:21:22 AM 41.0814 -91.8006 74° East 529 609 35,000  Level Minneapolis Center
Tue 05:22:48 AM 41.1336 -91.5556 74° East 524 603 35,000 41 Level Chicago Center
Tue 05:23:48 AM 41.1731 -91.3689 74° East 527 606 35,100 496 Climbing Chicago Center
Tue 05:24:49 AM 41.2111 -91.1825 75° East 525 604 36,000 893 Climbing Chicago Center
Tue 05:25:49 AM 41.2456 -90.9950 76° East 522 601 36,900 496 Climbing Chicago Center
Tue 05:26:50 AM 41.2753 -90.8072 78° East 518 596 37,000 50 Climbing Chicago Center
Tue 05:27:50 AM 41.3078 -90.6136 77° East 529 609 37,000  Level Chicago Center
Tue 05:28:51 AM 41.3397 -90.4206 78° East 532 612 37,000  Level Chicago Center
Tue 05:29:51 AM 41.3703 -90.2261 78° East 533 613 37,000  Level Chicago Center
Tue 05:30:52 AM 41.4000 -90.0325 78° East 532 612 37,000  Level Chicago Center
Tue 05:31:52 AM 41.4297 -89.8378 78° East 532 612 37,000  Level Chicago Center
Tue 05:32:53 AM 41.4606 -89.6428 78° East 534 615 37,000  Level Chicago Center
Tue 05:33:53 AM 41.4886 -89.4492 79° East 528 608 37,000  Level Chicago Center
Tue 05:34:54 AM 41.5183 -89.2528 79° East 534 615 37,000  Level Chicago Center
Tue 05:35:54 AM 41.5475 -89.0581 79° East 534 615 37,000  Level Chicago Center
Tue 05:36:55 AM 41.5756 -88.8633 79° East 534 615 37,000  Level Chicago Center
Tue 05:37:55 AM 41.6031 -88.6681 79° East 534 615 37,000  Level Chicago Center
Tue 05:38:56 AM 41.6317 -88.4739 79° East 532 612 37,000  Level Chicago Center
Tue 05:39:56 AM 41.6581 -88.2797 80° East 531 611 37,000  Level Chicago Center
Tue 05:40:57 AM 41.6883 -88.0667 79° East 531 611 37,000  Level Chicago Center
Tue 05:41:57 AM 41.7150 -87.8742 79° East 529 609 37,000  Level Chicago Center
Tue 05:42:58 AM 41.7422 -87.6739 80° East 525 604 37,000  Level Chicago Center
Tue 05:43:59 AM 41.7672 -87.4811 80° East 527 606 37,000  Level Chicago Center
Tue 05:44:59 AM 41.7939 -87.2853 80° East 533 613 37,000  Level Chicago Center
Tue 05:46:00 AM 41.8192 -87.0903 80° East 532 612 37,000  Level Chicago Center
Tue 05:47:00 AM 41.8439 -86.8947 80° East 533 613 37,000  Level Chicago Center
Tue 05:48:01 AM 41.8694 -86.6992 80° East 534 615 37,000  Level Chicago Center
Tue 05:49:01 AM 41.8933 -86.5042 81° East 530 610 37,000  Level Chicago Center
Tue 05:50:02 AM 41.9175 -86.3067 81° East 534 615 37,000  Level Chicago Center
Tue 05:51:02 AM 41.9411 -86.1106 81° East 533 613 37,000  Level Chicago Center
Tue 05:52:03 AM 41.9644 -85.9156 81° East 530 610 37,000  Level Chicago Center
Tue 05:53:03 AM 41.9878 -85.7178 81° East 531 611 37,000  Level Chicago Center
Tue 05:54:04 AM 42.0133 -85.5003 81° East 533 613 37,000  Level Chicago Center
Tue 05:55:05 AM 42.0358 -85.3053 81° East 531 611 37,000  Level Chicago Center
Tue 05:56:05 AM 42.0575 -85.1117 81° East 529 609 37,000  Level Chicago Center
Tue 05:57:06 AM 42.0794 -84.9164 81° East 529 609 37,000  Level Chicago Center
Tue 05:58:06 AM 42.1008 -84.7236 81° East 526 605 37,000  Level Chicago Center
Tue 05:59:07 AM 42.1214 -84.5289 82° East 528 608 37,000  Level Chicago Center
Tue 06:00:09 AM 42.1417 -84.3344 82° East 529 609 37,000  Level Chicago Center
Tue 06:00:40 AM 42.1500 -84.2328 84° East 527 606 37,000  Level Cleveland Center
Tue 06:01:40 AM 42.1686 -84.0378 83° East 522 601 37,000  Level Cleveland Center
Tue 06:02:40 AM 42.1889 -83.8453 82° East 522 601 37,000  Level Cleveland Center
Tue 06:03:40 AM 42.2064 -83.6556 83° East 517 595 37,000  Level Cleveland Center
Tue 06:04:40 AM 42.2283 -83.4575 81° East 527 606 37,000  Level Cleveland Center
Tue 06:05:40 AM 42.2475 -83.2647 82° East 522 601 37,000  Level Cleveland Center
Tue 06:06:40 AM 42.2650 -83.0467 84° East 528 608 37,000  Level Cleveland Center
Tue 06:07:40 AM 42.2833 -82.8567 83° East 522 601 37,000  Level Cleveland Center
Tue 06:08:40 AM 42.3017 -82.6633 83° East 517 595 37,000  Level Cleveland Center
Tue 06:09:40 AM 42.3175 -82.4703 84° East 522 601 37,000  Level Cleveland Center
Tue 06:10:40 AM 42.3353 -82.2742 83° East 522 601 37,000  Level Cleveland Center
Tue 06:11:40 AM 42.3544 -82.0808 82° East 517 595 37,000  Level Cleveland Center
Tue 06:12:40 AM 42.3717 -81.8844 83° East 517 595 37,000  Level Cleveland Center
Tue 06:13:40 AM 42.3861 -81.6908 84° East 518 596 37,000  Level Cleveland Center
Tue 06:14:40 AM 42.4022 -81.5025 83° East 518 596 37,000  Level Cleveland Center
Tue 06:15:40 AM 42.4139 -81.3311 85° East 508 585 37,000  Level Cleveland Center
Tue 06:16:40 AM 42.4275 -81.1400 84° East 508 585 37,000  Level Cleveland Center
Tue 06:17:40 AM 42.4431 -80.9489 84° East 508 585 37,000  Level Cleveland Center
Tue 06:18:40 AM 42.4558 -80.7606 85° East 503 579 37,000  Level Cleveland Center
Tue 06:19:40 AM 42.4706 -80.5719 84° East 508 585 37,000  Level Cleveland Center
Tue 06:20:40 AM 42.4831 -80.3778 85° East 502 578 37,000  Level Cleveland Center
Tue 06:21:40 AM 42.4992 -80.1692 84° East 507 583 37,000  Level Cleveland Center
Tue 06:22:40 AM 42.5108 -79.9775 85° East 507 583 37,000  Level Cleveland Center
Tue 06:23:40 AM 42.5242 -79.8056 84° East 507 583 37,000  Level Cleveland Center
Tue 06:24:40 AM 42.5353 -79.6139 85° East 507 583 37,000  Level Cleveland Center
Tue 06:25:40 AM 42.5439 -79.4222 86° East 502 578 37,000  Level Cleveland Center
Tue 06:26:40 AM 42.5586 -79.2303 84° East 502 578 37,000  Level Cleveland Center
Tue 06:27:40 AM 42.5686 -79.0411 86° East 502 578 37,000  Level Cleveland Center
Tue 06:28:40 AM 42.5806 -78.8461 85° East 502 578 37,000  Level Cleveland Center
Tue 06:29:40 AM 42.5900 -78.6542 86° East 502 578 37,000  Level Cleveland Center
Tue 06:30:40 AM 42.6014 -78.4647 85° East 502 578 37,000  Level Cleveland Center
Tue 06:31:40 AM 42.6100 -78.2728 86° East 502 578 37,000  Level Cleveland Center
Tue 06:32:40 AM 42.6206 -78.0803 86° East 502 578 37,000  Level Cleveland Center
Tue 06:33:40 AM 42.6289 -77.8939 86° East 502 578 37,000  Level Cleveland Center
Tue 06:34:40 AM 42.6383 -77.6817 86° East 502 578 37,000  Level Cleveland Center
Tue 06:35:40 AM 42.6481 -77.4950 86° East 502 578 37,000  Level Cleveland Center
Tue 06:38:00 AM 42.6644 -77.0744 87° East 505 581 37,000  Level Boston Center
Tue 06:39:00 AM 42.6700 -76.8797 88° East 505 581 37,000  Level Boston Center
Tue 06:40:00 AM 42.6753 -76.6881 88° East 505 581 37,000  Level Boston Center
Tue 06:41:00 AM 42.6739 -76.4986 91° East 505 581 37,000  Level Boston Center
Tue 06:41:59 AM 42.6703 -76.3036 91° East 505 581 37,000  Level Boston Center
Tue 06:43:00 AM 42.6706 -76.1114 90° East 511 588 37,000  Level Boston Center
Tue 06:43:59 AM 42.6661 -75.9192 92° East 511 588 37,000  Level Boston Center
Tue 06:44:58 AM 42.6636 -75.7242 91° East 516 594 37,000  Level Boston Center
Tue 06:45:58 AM 42.6586 -75.5261 92° East 516 594 37,000  Level Boston Center
Tue 06:46:58 AM 42.6533 -75.3367 92° East 516 594 37,000 -50 Level Boston Center
Tue 06:47:58 AM 42.6517 -75.1447 91° East 511 588 36,900 -50 Descending Boston Center
Tue 06:48:58 AM 42.6481 -74.9328 91° East 511 588 36,900 50 Level Boston Center
Tue 06:49:58 AM 42.6419 -74.7406 92° East 516 594 37,000 50 Climbing Boston Center
Tue 06:50:58 AM 42.6372 -74.5483 92° East 516 594 37,000  Level Boston Center
Tue 06:51:58 AM 42.6322 -74.3533 92° East 516 594 37,000  Level Boston Center
Tue 06:52:59 AM 42.6250 -74.1614 93° East 516 594 37,000  Level Boston Center
Tue 06:54:00 AM 42.6194 -73.9722 92° East 511 588 37,000  Level Boston Center
Tue 06:54:58 AM 42.6133 -73.7803 92° East 511 588 37,000 -1,200 Level Boston Center
Tue 06:56:00 AM 42.6114 -73.5939 91° East 505 581 34,600 -2,750 Descending Boston Center
Tue 06:56:58 AM 42.6047 -73.3992 93° East 505 581 31,500 -2,797 Descending Boston Center
Tue 06:57:58 AM 42.5981 -73.1989 93° East 521 600 29,100 -2,300 Descending Boston Center
Tue 06:58:58 AM 42.5886 -73.0097 94° East 515 593 26,900 -2,182 Descending Boston Center
Tue 06:59:59 AM 42.5831 -72.8264 92° East 497 572 24,700 -2,182 Descending Boston Center
Tue 07:00:59 AM 42.5731 -72.6514 94° East 475 547 22,500 -1,934 Descending Boston Center
Tue 07:02:00 AM 42.5672 -72.4908 93° East 468 539 20,800 -1,866 Descending Boston Center
Tue 07:02:58 AM 42.5589 -72.3331 94° East 448 516 18,800 -2,100 Descending Boston Center
Tue 07:04:00 AM 42.5500 -72.1725 94° East 428 493 16,600 -2,115 Descending Boston Center
Tue 07:05:00 AM 42.5392 -71.9950 95° East 421 484 14,500 -1,983 Descending Boston Center
Tue 07:05:58 AM 42.5281 -71.8597 96° East 416 479 12,700 -1,525 Descending Boston Center
Tue 07:06:58 AM 42.5125 -71.7050 98° East 391 450 11,500 -981 Descending Boston Center
Tue 07:07:42 AM 42.5000 -71.6000 99° East 334 384 11,000 -310 Descending KA90
Tue 07:08:54 AM 42.4833 -71.4667 100° East 331 381 10,900 -652 Descending KA90
Tue 07:10:00 AM 42.4833 -71.3167 90° East 328 377 9,500 -1,300 Descending KA90
Tue 07:10:54 AM 42.4667 -71.2167 103° East 303 349 8,300 -1,316 Descending KA90
Tue 07:11:54 AM 42.4500 -71.1167 103° East 295 339 7,000 -778 Descending KA90
Tue 07:12:42 AM 42.4500 -71.0333 90° East 274 315 6,900 -524 Descending KA90
Tue 07:13:37 AM 42.4333 -70.9500 105° East 248 285 6,100 -1,045 Descending KA90
Tue 07:14:54 AM 42.3667 -70.8667 137° Southeast 240 276 4,600 -1,056 Descending KA90
Tue 07:15:42 AM 42.3333 -70.8167 132° Southeast 237 273 3,900 -789 Descending KA90
Tue 07:16:48 AM 42.2833 -70.8000 166° South 178 205 3,100 -843 Descending KA90
Tue 07:17:43 AM 42.2833 -70.8667 270° West 170 196 2,200 -793 Descending KA90
Tue 07:18:49 AM 42.3000 -70.9167 294° West 143 165 1,500 -619 Descending KA90
Tue 07:19:49 AM 42.3333 -70.9500 324° Northwest 132 152 900 -672 Descending KA90
Tue 07:20:54 AM 42.3500 -70.9833 304° West 133 153 100 -738 Descending KA90

Login

Don't have an account? Register now (free) for customized features, flight alerts, and more!